Time;durP1;ratioP1;P1;durP2;ratioP2;P2;SDS_P1;SDS_P2;PMS_P1;PMS_P2;Temp;Humidity;BMP_temperature;BMP_pressure;BME280_temperature;BME280_humidity;BME280_pressure;Samples;Min_cycle;Max_cycle;Signal;HPM_P1;HPM_P2
2023/04/16 00:00:47;;;;;;;1999.90;999.90;;;;;;;6.44;100.00;97416.91;5132048;27;20390;-74
2023/04/16 00:03:12;;;;;;;1999.90;999.90;;;;;;;6.34;100.00;97412.34;5131518;27;20033;-76
2023/04/16 00:05:38;;;;;;;1999.90;999.90;;;;;;;6.26;100.00;97399.38;5132346;27;20023;-76
2023/04/16 00:08:03;;;;;;;1999.90;999.90;;;;;;;6.28;100.00;97410.75;5131854;27;20106;-75
2023/04/16 00:10:29;;;;;;;1999.90;999.90;;;;;;;6.31;100.00;97410.19;5130621;27;20035;-75
2023/04/16 00:12:54;;;;;;;1999.90;999.90;;;;;;;6.32;100.00;97405.56;5131460;27;20027;-75
2023/04/16 00:15:19;;;;;;;1999.90;999.90;;;;;;;6.27;100.00;97403.69;5132253;27;20034;-75
2023/04/16 00:17:45;;;;;;;1999.90;999.90;;;;;;;6.25;100.00;97405.88;5131313;27;20027;-75
2023/04/16 00:20:10;;;;;;;1999.90;999.90;;;;;;;6.23;100.00;97409.97;5130752;27;20019;-76
2023/04/16 00:22:36;;;;;;;1999.90;999.90;;;;;;;6.28;100.00;97409.94;5132689;27;20038;-75
2023/04/16 00:25:01;;;;;;;1999.90;999.90;;;;;;;6.16;100.00;97421.16;5133180;27;20027;-74
2023/04/16 00:27:27;;;;;;;1999.90;999.90;;;;;;;6.11;100.00;97404.09;5133530;27;20019;-75
2023/04/16 00:29:52;;;;;;;1999.90;999.90;;;;;;;6.09;100.00;97406.25;5133701;27;20023;-74
2023/04/16 00:32:17;;;;;;;1999.90;999.90;;;;;;;6.02;100.00;97403.84;5135269;27;20015;-75
2023/04/16 00:34:43;;;;;;;1999.90;999.90;;;;;;;5.96;100.00;97404.94;5134491;27;20015;-75
2023/04/16 00:37:08;;;;;;;1999.90;999.90;;;;;;;5.95;100.00;97403.34;5133379;27;20053;-74
2023/04/16 00:39:34;;;;;;;1999.90;999.90;;;;;;;5.93;100.00;97397.38;5132682;27;20087;-74
2023/04/16 00:41:59;;;;;;;1999.90;999.90;;;;;;;5.98;100.00;97400.09;5132202;27;20034;-77
2023/04/16 00:44:25;;;;;;;1999.90;999.90;;;;;;;6.02;100.00;97406.56;5132441;27;20037;-75
2023/04/16 00:46:50;;;;;;;1999.90;999.90;;;;;;;5.96;100.00;97406.84;5132521;27;20026;-74
2023/04/16 00:49:16;;;;;;;1999.90;999.90;;;;;;;5.84;100.00;97407.16;5132935;27;20035;-74
2023/04/16 00:51:41;;;;;;;1999.90;999.90;;;;;;;5.89;100.00;97402.53;5132773;27;20019;-74
2023/04/16 00:54:07;;;;;;;1999.90;999.90;;;;;;;5.95;100.00;97411.50;5133540;27;20043;-74
2023/04/16 00:56:34;;;;;;;1999.90;999.90;;;;;;;5.95;100.00;97406.06;5115393;28;20083;-75
2023/04/16 00:59:00;;;;;;;1999.90;999.90;;;;;;;5.88;100.00;97408.25;5134464;28;20035;-75
2023/04/16 01:01:25;;;;;;;1999.90;999.90;;;;;;;5.93;100.00;97419.09;5134183;28;20027;-75
2023/04/16 01:03:50;;;;;;;1999.90;999.90;;;;;;;5.88;100.00;97416.41;5132196;27;20510;-74
2023/04/16 01:06:16;;;;;;;1999.90;999.90;;;;;;;5.80;100.00;97414.22;5132199;27;20031;-75
2023/04/16 01:08:43;;;;;;;1999.90;999.90;;;;;;;5.79;100.00;97412.63;5131497;28;20072;-76
2023/04/16 01:11:14;;;;;;;1999.90;999.90;;;;;;;5.82;100.00;97412.06;5132151;28;20027;-75
2023/04/16 01:13:40;;;;;;;1999.90;999.90;;;;;;;5.81;100.00;97403.09;5132784;28;20038;-76
2023/04/16 01:16:06;;;;;;;1999.90;999.90;;;;;;;5.88;100.00;97410.97;5132229;28;20020;-76
2023/04/16 01:18:32;;;;;;;1999.90;999.90;;;;;;;5.88;100.00;97421.84;5132265;27;20031;-75
2023/04/16 01:20:57;;;;;;;1999.90;999.90;;;;;;;5.85;100.00;97422.34;5132514;27;20467;-78
2023/04/16 01:23:23;;;;;;;1999.90;999.90;;;;;;;5.79;100.00;97418.88;5132726;27;20031;-75
2023/04/16 01:25:48;;;;;;;1999.90;999.90;;;;;;;5.69;100.00;97409.94;5132876;28;20068;-75
2023/04/16 01:28:14;;;;;;;1999.90;999.90;;;;;;;5.72;100.00;97412.09;5131877;27;20140;-75
2023/04/16 01:30:39;;;;;;;1999.90;999.90;;;;;;;5.74;100.00;97420.75;5134641;27;20723;-77
2023/04/16 01:33:06;;;;;;;1999.90;999.90;;;;;;;5.72;100.00;97420.25;5142922;27;20027;-77
2023/04/16 01:35:31;;;;;;;1999.90;999.90;;;;;;;5.80;100.00;97416.94;5139395;27;20028;-78
2023/04/16 01:37:56;;;;;;;1999.90;999.90;;;;;;;5.84;100.00;97421.53;5136048;27;20102;-76
2023/04/16 01:40:22;;;;;;;1999.90;999.90;;;;;;;5.83;100.00;97422.63;5135618;27;20047;-74
2023/04/16 01:42:47;;;;;;;1999.90;999.90;;;;;;;5.89;100.00;97428.88;5135385;27;20030;-76
2023/04/16 01:45:12;;;;;;;1999.90;999.90;;;;;;;5.80;100.00;97431.31;5135452;27;20426;-76
2023/04/16 01:47:38;;;;;;;1999.90;999.90;;;;;;;5.62;100.00;97414.84;5135363;27;20019;-74
2023/04/16 01:50:04;;;;;;;1999.90;999.90;;;;;;;5.64;100.00;97437.09;5135090;27;21441;-77
2023/04/16 01:52:29;;;;;;;1999.90;999.90;;;;;;;5.62;100.00;97433.84;5135083;27;20030;-74
2023/04/16 01:54:55;;;;;;;1999.90;999.90;;;;;;;5.57;100.00;97418.41;5134827;27;20399;-75
2023/04/16 01:57:20;;;;;;;1999.90;999.90;;;;;;;5.65;100.00;97433.28;5135932;27;20899;-78
2023/04/16 01:59:46;;;;;;;1999.90;999.90;;;;;;;5.64;100.00;97427.03;5135456;27;20375;-76
2023/04/16 02:02:13;;;;;;;1999.90;999.90;;;;;;;5.58;100.00;97416.47;5135052;27;20031;-74
2023/04/16 02:04:40;;;;;;;1999.90;999.90;;;;;;;5.54;100.00;97437.13;5135011;27;20019;-75
2023/04/16 02:07:07;;;;;;;1999.90;999.90;;;;;;;5.55;100.00;97428.69;5134587;27;20483;-75
2023/04/16 02:09:34;;;;;;;1999.90;999.90;;;;;;;5.47;100.00;97436.59;5134658;27;20082;-77
2023/04/16 02:12:01;;;;;;;1999.90;999.90;;;;;;;5.53;100.00;97430.88;5135001;27;20039;-76
2023/04/16 02:14:26;;;;;;;1999.90;999.90;;;;;;;5.61;100.00;97441.16;5134834;27;20042;-77
2023/04/16 02:16:52;;;;;;;1999.90;999.90;;;;;;;5.46;100.00;97427.63;5134668;27;20028;-77
2023/04/16 02:19:17;;;;;;;1999.90;999.90;;;;;;;5.55;100.00;97446.88;5135649;27;20531;-77
2023/04/16 02:21:42;;;;;;;1999.90;999.90;;;;;;;5.55;100.00;97438.72;5134453;27;20023;-76
2023/04/16 02:24:08;;;;;;;1999.90;999.90;;;;;;;5.54;100.00;97439.84;5134604;27;20023;-76
2023/04/16 02:26:33;;;;;;;1999.90;999.90;;;;;;;5.50;100.00;97444.19;5116252;27;20019;-75
2023/04/16 02:28:59;;;;;;;1999.90;999.90;;;;;;;5.55;100.00;97444.16;5135663;27;20031;-75
2023/04/16 02:31:24;;;;;;;1999.90;999.90;;;;;;;5.54;100.00;97450.69;5134985;27;20058;-75
2023/04/16 02:33:49;;;;;;;1999.90;999.90;;;;;;;5.41;100.00;97449.34;5135607;27;20411;-75
2023/04/16 02:36:15;;;;;;;1999.90;999.90;;;;;;;5.33;100.00;97450.72;5134741;27;20035;-75
2023/04/16 02:38:40;;;;;;;1999.90;999.90;;;;;;;5.25;100.00;97458.59;5134524;27;20555;-75
2023/04/16 02:41:06;;;;;;;1999.90;999.90;;;;;;;5.31;100.00;97461.03;5116123;27;20027;-75
2023/04/16 02:43:31;;;;;;;1999.90;999.90;;;;;;;5.33;100.00;97464.28;5134151;27;20118;-76
2023/04/16 02:45:58;;;;;;;1999.90;999.90;;;;;;;5.36;100.00;97452.06;5134294;27;20504;-75
2023/04/16 02:48:23;;;;;;;1999.90;999.90;;;;;;;5.46;100.00;97462.06;5133944;27;20057;-75
2023/04/16 02:50:49;;;;;;;1999.90;999.90;;;;;;;5.37;100.00;97459.94;5133787;27;20031;-75
2023/04/16 02:53:14;;;;;;;1999.90;999.90;;;;;;;5.37;100.00;97457.22;5127518;27;20053;-74
2023/04/16 02:55:39;;;;;;;1999.90;999.90;;;;;;;5.38;100.00;97461.56;5118755;27;20024;-75
2023/04/16 02:58:05;;;;;;;1999.90;999.90;;;;;;;5.41;100.00;97462.91;5113155;28;20031;-75
2023/04/16 03:00:30;;;;;;;1999.90;999.90;;;;;;;5.50;100.00;97471.31;5133275;27;20027;-75
2023/04/16 03:02:56;;;;;;;1999.90;999.90;;;;;;;5.40;100.00;97458.56;5133684;27;20681;-75
2023/04/16 03:05:21;;;;;;;1999.90;999.90;;;;;;;5.43;100.00;97468.06;5115321;27;20027;-74
2023/04/16 03:07:46;;;;;;;1999.90;999.90;;;;;;;5.44;100.00;97469.69;5114767;27;20030;-76
2023/04/16 03:10:12;;;;;;;1999.90;999.90;;;;;;;5.40;100.00;97472.13;5133388;27;20047;-75
2023/04/16 03:12:38;;;;;;;1999.90;999.90;;;;;;;5.40;100.00;97466.72;5113438;28;20028;-75
2023/04/16 03:15:04;;;;;;;1999.90;999.90;;;;;;;5.33;100.00;97466.97;5113782;28;20480;-76
2023/04/16 03:17:29;;;;;;;1999.90;999.90;;;;;;;5.36;100.00;97469.16;5113769;28;20024;-76
2023/04/16 03:19:55;;;;;;;1999.90;999.90;;;;;;;5.30;100.00;97470.25;5095865;28;20106;-75
2023/04/16 03:22:20;;;;;;;1999.90;999.90;;;;;;;5.35;100.00;97475.69;5115867;28;20074;-82
2023/04/16 03:24:45;;;;;;;1999.90;999.90;;;;;;;5.35;100.00;97467.53;5113885;28;20151;-75
2023/04/16 03:27:11;;;;;;;1999.90;999.90;;;;;;;5.33;100.00;97466.97;5112483;28;20024;-75
2023/04/16 03:29:39;;;;;;;1999.90;999.90;;;;;;;5.39;100.00;97470.50;5112516;28;20572;-76
2023/04/16 03:32:05;;;;;;;1999.90;999.90;;;;;;;5.25;100.00;97483.81;5112203;28;20027;-75
2023/04/16 03:34:30;;;;;;;1999.90;999.90;;;;;;;5.22;100.00;97473.53;5113597;28;20831;-75
2023/04/16 03:36:55;;;;;;;1999.90;999.90;;;;;;;5.22;100.00;97473.53;5113560;28;20024;-75
2023/04/16 03:39:21;;;;;;;1999.90;999.90;;;;;;;5.20;100.00;97481.09;5130550;27;20034;-75
2023/04/16 03:41:46;;;;;;;1999.90;999.90;;;;;;;5.25;100.00;97486.53;5118305;28;20476;-76
2023/04/16 03:44:11;;;;;;;1999.90;999.90;;;;;;;5.31;100.00;97480.00;5115790;28;20456;-76
2023/04/16 03:46:37;;;;;;;1999.90;999.90;;;;;;;5.31;100.00;97490.84;5111783;28;20028;-76
2023/04/16 03:49:02;;;;;;;1999.90;999.90;;;;;;;5.24;100.00;97490.31;5131225;27;20531;-76
2023/04/16 03:51:27;;;;;;;1999.90;999.90;;;;;;;5.21;100.00;97499.00;5132402;27;20019;-76
2023/04/16 03:53:53;;;;;;;1999.90;999.90;;;;;;;5.27;100.00;97503.31;5131794;27;20027;-76
2023/04/16 03:56:18;;;;;;;1999.90;999.90;;;;;;;5.28;100.00;97499.53;5132544;27;20019;-75
2023/04/16 03:58:43;;;;;;;1999.90;999.90;;;;;;;5.28;100.00;97502.25;5131983;27;20025;-75
2023/04/16 04:01:09;;;;;;;1999.90;999.90;;;;;;;5.26;100.00;97509.81;5132368;27;20053;-74
2023/04/16 04:03:34;;;;;;;1999.90;999.90;;;;;;;5.25;100.00;97520.97;5132649;27;20034;-76
2023/04/16 04:06:00;;;;;;;1999.90;999.90;;;;;;;5.17;100.00;97519.59;5132183;27;20151;-75
2023/04/16 04:08:25;;;;;;;1999.90;999.90;;;;;;;5.16;100.00;97520.69;5133870;27;20063;-75
2023/04/16 04:10:51;;;;;;;1999.90;999.90;;;;;;;5.14;100.00;97525.56;5132196;27;20031;-76
2023/04/16 04:13:16;;;;;;;1999.90;999.90;;;;;;;5.22;100.00;97524.22;5132342;27;20418;-76
2023/04/16 04:15:43;;;;;;;1999.90;999.90;;;;;;;5.19;100.00;97524.75;5131821;27;20031;-75
2023/04/16 04:18:08;;;;;;;1999.90;999.90;;;;;;;5.14;100.00;97530.97;5131689;27;20514;-75
2023/04/16 04:20:37;;;;;;;1999.90;999.90;;;;;;;5.25;100.00;97532.63;5131828;27;20027;-76
2023/04/16 04:23:03;;;;;;;1999.90;999.90;;;;;;;5.25;100.00;97532.63;5131837;27;20034;-75
2023/04/16 04:25:28;;;;;;;1999.90;999.90;;;;;;;5.21;100.00;97526.09;5131933;27;20398;-76
2023/04/16 04:27:53;;;;;;;1999.90;999.90;;;;;;;5.25;100.00;97524.50;5131560;27;20026;-75
2023/04/16 04:30:19;;;;;;;1999.90;999.90;;;;;;;5.29;100.00;97528.25;5131992;27;20015;-75
2023/04/16 04:32:44;;;;;;;1999.90;999.90;;;;;;;5.24;100.00;97528.28;5132237;27;20084;-75
2023/04/16 04:35:10;;;;;;;1999.90;999.90;;;;;;;5.19;100.00;97533.72;5132241;27;20031;-76
2023/04/16 04:37:35;;;;;;;1999.90;999.90;;;;;;;5.28;100.00;97537.50;5131970;27;20053;-75
2023/04/16 04:40:00;;;;;;;1999.90;999.90;;;;;;;5.23;100.00;97544.81;5132375;27;20019;-75
2023/04/16 04:42:26;;;;;;;1999.90;999.90;;;;;;;5.22;100.00;97533.16;5114462;27;20833;-75
2023/04/16 04:44:51;;;;;;;1999.90;999.90;;;;;;;5.25;100.00;97542.66;5133142;27;20025;-75
2023/04/16 04:47:17;;;;;;;1999.90;999.90;;;;;;;5.21;100.00;97545.09;5129205;27;20011;-76
2023/04/16 04:49:42;;;;;;;1999.90;999.90;;;;;;;5.19;100.00;97535.59;5119138;27;20015;-76
2023/04/16 04:52:07;;;;;;;1999.90;999.90;;;;;;;5.14;100.00;97541.81;5131387;27;20084;-75
2023/04/16 04:54:33;;;;;;;1999.90;999.90;;;;;;;5.08;100.00;97556.47;5131256;27;20019;-74
2023/04/16 04:56:58;;;;;;;1999.90;999.90;;;;;;;5.07;100.00;97551.31;5131984;27;20034;-75
2023/04/16 04:59:24;;;;;;;1999.90;999.90;;;;;;;5.21;100.00;97564.06;5132160;27;20399;-75
2023/04/16 05:01:50;;;;;;;1999.90;999.90;;;;;;;5.29;100.00;97566.22;5132094;27;20110;-74
2023/04/16 05:04:16;;;;;;;1999.90;999.90;;;;;;;5.27;100.00;97564.88;5132345;28;20164;-75
2023/04/16 05:06:42;;;;;;;1999.90;999.90;;;;;;;5.25;100.00;97569.75;5133204;27;20051;-75
2023/04/16 05:09:10;;;;;;;1999.90;999.90;;;;;;;5.21;100.00;97569.47;5135333;27;20554;-75
2023/04/16 05:11:37;;;;;;;1999.90;999.90;;;;;;;5.19;100.00;97574.38;5135436;27;20030;-75
2023/04/16 05:14:02;;;;;;;1999.90;999.90;;;;;;;5.26;100.00;97582.25;5117098;27;20060;-75
2023/04/16 05:16:28;;;;;;;1999.90;999.90;;;;;;;5.24;100.00;97585.22;5135290;27;20055;-75
2023/04/16 05:18:54;;;;;;;1999.90;999.90;;;;;;;5.29;100.00;97581.69;5135062;27;20019;-75
2023/04/16 05:21:20;;;;;;;1999.90;999.90;;;;;;;5.34;100.00;97590.63;5135128;27;20386;-76
2023/04/16 05:23:46;;;;;;;1999.90;999.90;;;;;;;5.42;100.00;97594.69;5135028;27;20148;-76
2023/04/16 05:26:11;;;;;;;1999.90;999.90;;;;;;;5.39;100.00;97590.63;5135319;27;20084;-77
2023/04/16 05:28:36;;;;;;;1999.90;999.90;;;;;;;5.41;100.00;97595.78;5136606;27;20110;-77
2023/04/16 05:31:02;;;;;;;1999.90;999.90;;;;;;;5.40;100.00;97594.97;5140442;27;20023;-76
2023/04/16 05:33:27;;;;;;;1999.90;999.90;;;;;;;5.49;100.00;97602.56;5139845;27;20035;-75
2023/04/16 05:35:53;;;;;;;1999.90;999.90;;;;;;;5.58;100.00;97606.34;5136528;27;20019;-75
2023/04/16 05:38:18;;;;;;;1999.90;999.90;;;;;;;5.66;100.00;97597.69;5136137;27;20023;-75
2023/04/16 05:40:43;;;;;;;1999.90;999.90;;;;;;;5.76;100.00;97605.81;5136191;27;20042;-75
2023/04/16 05:43:09;;;;;;;1999.90;999.90;;;;;;;5.73;100.00;97603.66;5134569;27;20034;-75
2023/04/16 05:45:39;;;;;;;1999.90;999.90;;;;;;;5.79;100.00;97611.53;5135888;27;20491;-76
2023/04/16 05:48:08;;;;;;;1999.90;999.90;;;;;;;5.84;100.00;97616.13;5124746;27;20023;-75
2023/04/16 05:50:34;;;;;;;1999.90;999.90;;;;;;;5.93;100.00;97611.78;5121545;28;20062;-84
2023/04/16 05:53:00;;;;;;;1999.90;999.90;;;;;;;6.01;100.00;97619.38;5117998;28;20027;-76
2023/04/16 05:55:25;;;;;;;1999.90;999.90;;;;;;;6.13;100.00;97619.91;5116076;28;20020;-75
2023/04/16 05:57:50;;;;;;;1999.90;999.90;;;;;;;6.17;100.00;97618.25;5116372;28;20016;-76
2023/04/16 06:00:16;;;;;;;1999.90;999.90;;;;;;;6.31;100.00;97626.63;5116077;28;20378;-74
2023/04/16 06:02:41;;;;;;;1999.90;999.90;;;;;;;6.32;100.00;97623.66;5115216;28;20051;-76
2023/04/16 06:05:07;;;;;;;1999.90;999.90;;;;;;;6.37;100.00;97626.34;5114786;28;20057;-75
2023/04/16 06:07:32;;;;;;;1999.90;999.90;;;;;;;6.52;100.00;97632.81;5113735;28;20027;-74
2023/04/16 06:09:57;;;;;;;1999.90;999.90;;;;;;;6.50;100.00;97635.81;5113787;28;20043;-74
2023/04/16 06:12:23;;;;;;;1999.90;999.90;;;;;;;6.55;100.00;97629.56;5115250;28;20476;-75
2023/04/16 06:14:48;;;;;;;1999.90;999.90;;;;;;;6.60;100.00;97619.47;5117249;28;20042;-75
2023/04/16 06:17:13;;;;;;;1999.90;999.90;;;;;;;6.75;100.00;97624.03;5113357;28;20024;-75
2023/04/16 06:19:39;;;;;;;1999.90;999.90;;;;;;;6.82;100.00;97624.56;5113668;28;20054;-75
2023/04/16 06:22:06;;;;;;;1999.90;999.90;;;;;;;6.97;100.00;97630.72;5113563;28;20384;-75
2023/04/16 06:24:32;;;;;;;1999.90;999.90;;;;;;;7.12;100.00;97635.25;5143871;27;20075;-74
2023/04/16 06:26:57;;;;;;;1999.90;999.90;;;;;;;7.21;100.00;97630.84;5154719;27;20064;-76
2023/04/16 06:29:22;;;;;;;1999.90;999.90;;;;;;;7.28;100.00;97620.47;5136738;27;20033;-75
2023/04/16 06:31:48;;;;;;;1999.90;999.90;;;;;;;7.41;100.00;97638.88;5154540;27;20046;-77
2023/04/16 06:34:13;;;;;;;1999.90;999.90;;;;;;;7.40;100.00;97631.81;5154554;27;20026;-75
2023/04/16 06:36:39;;;;;;;1999.90;999.90;;;;;;;7.26;100.00;97625.38;5155790;27;20030;-75
2023/04/16 06:39:04;;;;;;;1999.90;999.90;;;;;;;7.48;100.00;97631.22;5154792;27;20022;-75
2023/04/16 06:41:29;;;;;;;1999.90;999.90;;;;;;;7.55;100.00;97633.59;5136167;27;20056;-76
2023/04/16 06:43:55;;;;;;;1999.90;999.90;;;;;;;7.61;100.00;97623.50;5154932;27;20033;-75
2023/04/16 06:46:20;;;;;;;1999.90;999.90;;;;;;;7.74;100.00;97639.97;5154342;27;20057;-75
2023/04/16 06:48:46;;;;;;;1999.90;999.90;;;;;;;7.98;100.00;97650.97;5154486;27;20027;-75
2023/04/16 06:51:12;;;;;;;1999.90;999.90;;;;;;;8.13;100.00;97639.91;5135725;27;20370;-76
2023/04/16 06:53:37;;;;;;;1999.90;999.90;;;;;;;8.23;100.00;97641.72;5154608;27;20027;-75
2023/04/16 06:56:03;;;;;;;1999.90;999.90;;;;;;;8.32;100.00;97640.84;5155408;27;20031;-75
2023/04/16 06:58:28;;;;;;;1999.90;999.90;;;;;;;8.47;100.00;97648.03;5156118;27;20118;-76
2023/04/16 07:00:54;;;;;;;1999.90;999.90;;;;;;;8.58;100.00;97649.56;5155897;27;20466;-75
2023/04/16 07:03:19;;;;;;;1999.90;999.90;;;;;;;8.76;100.00;97651.53;5136961;27;20038;-76
2023/04/16 07:05:45;;;;;;;1999.90;999.90;;;;;;;8.88;100.00;97649.19;5156785;27;20457;-76
2023/04/16 07:08:10;;;;;;;1999.90;999.90;;;;;;;9.04;100.00;97644.34;5156038;27;20529;-76
2023/04/16 07:10:35;;;;;;;1999.90;999.90;;;;;;;9.25;100.00;97648.44;5155372;27;20023;-76
2023/04/16 07:13:01;;;;;;;1999.90;999.90;;;;;;;9.48;100.00;97658.47;5155722;27;20023;-75
2023/04/16 07:15:26;;;;;;;1999.90;999.90;;;;;;;9.40;100.00;97656.38;5148184;27;20068;-76
2023/04/16 07:17:52;;;;;;;1999.90;999.90;;;;;;;9.30;100.00;97659.28;5115933;27;20521;-78
2023/04/16 07:20:17;;;;;;;1999.90;999.90;;;;;;;9.13;100.00;97650.78;5135527;27;20087;-79
2023/04/16 07:22:42;;;;;;;1999.90;999.90;;;;;;;9.23;100.00;97663.47;5138763;27;20023;-75
2023/04/16 07:25:08;;;;;;;1999.90;999.90;;;;;;;9.33;100.00;97661.44;5139565;27;20023;-73
2023/04/16 07:27:34;;;;;;;1999.90;999.90;;;;;;;9.35;100.00;97670.13;5139547;27;20019;-80
2023/04/16 07:29:59;;;;;;;1999.90;999.90;;;;;;;9.41;100.00;97666.22;5120414;27;20031;-81
2023/04/16 07:32:25;;;;;;;1999.90;999.90;;;;;;;9.64;100.00;97667.25;5138916;27;20118;-77
2023/04/16 07:34:50;;;;;;;1999.90;999.90;;;;;;;9.52;100.00;97664.94;5139893;27;20030;-81
2023/04/16 07:37:15;;;;;;;1999.90;999.90;;;;;;;9.57;100.00;97662.16;5135721;27;20023;-75
2023/04/16 07:39:41;;;;;;;1999.90;999.90;;;;;;;9.57;100.00;97675.00;5137316;27;20027;-76
2023/04/16 07:42:06;;;;;;;1999.90;999.90;;;;;;;9.51;100.00;97677.00;5133761;27;20069;-75
2023/04/16 07:44:32;;;;;;;1999.90;999.90;;;;;;;9.46;100.00;97682.50;5138756;27;20031;-76
2023/04/16 07:46:57;;;;;;;1999.90;999.90;;;;;;;9.74;100.00;97683.50;5133900;27;20391;-78
2023/04/16 07:49:23;;;;;;;1999.90;999.90;;;;;;;9.93;100.00;97680.72;5135348;27;20141;-85
2023/04/16 07:51:48;;;;;;;1999.90;999.90;;;;;;;10.10;100.00;97694.66;5137740;27;20031;-75
2023/04/16 07:54:13;;;;;;;1999.90;999.90;;;;;;;10.06;100.00;97685.41;5133329;27;20031;-76
2023/04/16 07:56:42;;;;;;;1999.90;999.90;;;;;;;9.83;100.00;97686.34;5132894;27;20033;-75
2023/04/16 07:59:07;;;;;;;1999.90;999.90;;;;;;;9.15;100.00;97687.56;5133912;27;20035;-79
2023/04/16 08:01:33;;;;;;;1999.90;999.90;;;;;;;9.55;100.00;97690.88;5115238;27;20027;-75
2023/04/16 08:03:58;;;;;;;1999.90;999.90;;;;;;;9.37;100.00;97695.19;5132056;27;20070;-74
2023/04/16 08:06:25;;;;;;;1999.90;999.90;;;;;;;9.22;100.00;97680.94;5130764;27;20031;-75
2023/04/16 08:08:50;;;;;;;1999.90;999.90;;;;;;;9.63;100.00;97699.19;5131673;27;20047;-76
2023/04/16 08:11:16;;;;;;;1999.90;999.90;;;;;;;9.63;100.00;97699.19;5113208;27;20475;-76
2023/04/16 08:13:41;;;;;;;1999.90;999.90;;;;;;;9.82;100.00;97687.44;5113078;27;20042;-77
2023/04/16 08:16:07;;;;;;;1999.90;999.90;;;;;;;10.12;100.00;97706.06;5113014;27;20074;-78
2023/04/16 08:18:32;;;;;;;1999.90;999.90;;;;;;;10.18;100.00;97700.25;5112968;27;20121;-78
2023/04/16 08:20:57;;;;;;;1999.90;999.90;;;;;;;10.41;100.00;97703.16;5131276;27;20019;-78
2023/04/16 08:23:23;;;;;;;1999.90;999.90;;;;;;;10.74;100.00;97707.50;5132203;27;20475;-78
2023/04/16 08:25:48;;;;;;;1999.90;999.90;;;;;;;10.92;100.00;97705.78;5131224;27;20023;-82
2023/04/16 08:28:14;;;;;;;1999.90;999.90;;;;;;;11.10;100.00;97716.63;5132278;27;20039;-77
2023/04/16 08:30:40;;;;;;;1999.90;999.90;;;;;;;11.03;100.00;97704.44;5132864;27;20058;-76
2023/04/16 08:33:05;;;;;;;1999.90;999.90;;;;;;;11.42;100.00;97712.94;5134955;27;20031;-85
2023/04/16 08:35:30;;;;;;;1999.90;999.90;;;;;;;11.22;100.00;97711.44;5135354;27;20024;-79
2023/04/16 08:37:57;;;;;;;1999.90;999.90;;;;;;;11.35;100.00;97714.47;5136944;27;20027;-87
2023/04/16 08:40:27;;;;;;;1999.90;999.90;;;;;;;11.41;100.00;97722.28;5135391;27;20106;-75
2023/04/16 08:42:56;;;;;;;1999.90;999.90;;;;;;;11.77;100.00;97709.47;5132158;27;20057;-77
2023/04/16 08:45:24;;;;;;;1999.90;999.90;;;;;;;11.77;100.00;97723.16;5131331;27;20033;-80
2023/04/16 08:47:50;;;;;;;1999.90;999.90;;;;;;;12.00;100.00;97720.44;5134850;27;20066;-78
2023/04/16 08:50:21;;;;;;;1999.90;999.90;;;;;;;11.93;100.00;97709.91;5134194;27;20023;-75
2023/04/16 08:52:51;;;;;;;1999.90;999.90;;;;;;;12.07;100.00;97721.63;5131234;27;20463;-75
2023/04/16 08:55:21;;;;;;;1999.90;999.90;;;;;;;12.59;100.00;97714.56;5113123;27;20133;-75
2023/04/16 08:57:53;;;;;;;1999.90;999.90;;;;;;;12.50;100.00;97719.19;5114694;28;20038;-76
2023/04/16 09:00:19;;;;;;;1999.90;999.90;;;;;;;11.73;100.00;97721.34;5131942;27;20034;-76
2023/04/16 09:02:45;;;;;;;1999.90;999.90;;;;;;;12.25;100.00;97725.31;5134241;28;20444;-76
2023/04/16 09:05:15;;;;;;;1999.90;999.90;;;;;;;12.94;100.00;97725.75;5133113;28;20023;-75
2023/04/16 09:07:43;;;;;;;1999.90;999.90;;;;;;;13.53;100.00;97721.59;5129816;27;20023;-76
2023/04/16 09:10:10;;;;;;;1999.90;999.90;;;;;;;13.51;100.00;97721.91;5129559;28;20107;-77
2023/04/16 09:12:36;;;;;;;1999.90;999.90;;;;;;;13.25;100.00;97719.09;5113188;28;20858;-77
2023/04/16 09:15:02;;;;;;;1999.90;999.90;;;;;;;13.61;100.00;97718.88;5131303;27;20471;-75
2023/04/16 09:17:27;;;;;;;1999.90;999.90;;;;;;;13.24;100.00;97724.91;5132167;27;20020;-76
2023/04/16 09:19:53;;;;;;;1999.90;999.90;;;;;;;13.39;100.00;97716.22;5131345;27;20079;-75
2023/04/16 09:22:19;;;;;;;1999.90;999.90;;;;;;;12.84;100.00;97721.34;5131174;28;20019;-74
2023/04/16 09:24:44;;;;;;;1999.90;999.90;;;;;;;12.61;100.00;97717.00;5131140;27;20023;-77
2023/04/16 09:27:11;;;;;;;1999.90;999.90;;;;;;;12.51;100.00;97720.00;5130954;27;20021;-74
2023/04/16 09:29:40;;;;;;;1999.90;999.90;;;;;;;12.94;100.00;97718.28;5131311;27;20471;-76
2023/04/16 09:32:10;;;;;;;1999.90;999.90;;;;;;;13.12;100.00;97719.22;5131198;27;20019;-75
2023/04/16 09:34:59;;;;;;;1999.90;999.90;;;;;;;12.88;100.00;97734.09;5131457;27;20030;-75
2023/04/16 09:37:29;;;;;;;1999.90;999.90;;;;;;;12.82;97.35;97718.06;5116039;28;20031;-74
2023/04/16 09:40:04;;;;;;;1999.90;999.90;;;;;;;12.74;98.01;97716.94;5130964;27;20427;-75
2023/04/16 09:42:32;;;;;;;1999.90;999.90;;;;;;;12.72;100.00;97719.16;5131931;27;20019;-75
2023/04/16 09:44:58;;;;;;;1999.90;999.90;;;;;;;13.28;100.00;97723.16;5131589;28;20056;-74
2023/04/16 09:47:41;;;;;;;1999.90;999.90;;;;;;;12.85;95.68;97728.44;5131109;28;20030;-78
2023/04/16 09:50:08;;;;;;;1999.90;999.90;;;;;;;12.25;99.87;97720.63;5130911;27;20035;-74
2023/04/16 09:52:37;;;;;;;1999.90;999.90;;;;;;;12.17;98.90;97721.41;5133246;27;20118;-76
2023/04/16 09:55:03;;;;;;;1999.90;999.90;;;;;;;12.12;94.58;97709.75;5135824;27;20035;-76
2023/04/16 09:57:28;;;;;;;1999.90;999.90;;;;;;;12.00;90.19;97709.47;5134236;27;20434;-76
2023/04/16 10:00:00;;;;;;;1999.90;999.90;;;;;;;11.62;91.94;97715.22;5137636;27;20019;-75
2023/04/16 10:02:29;;;;;;;1999.90;999.90;;;;;;;12.22;89.78;97720.44;5136486;27;20030;-76
2023/04/16 10:04:56;;;;;;;1999.90;999.90;;;;;;;11.87;86.27;97722.13;5137819;27;20447;-75
2023/04/16 10:07:22;;;;;;;1999.90;999.90;;;;;;;11.64;88.65;97706.72;5136826;27;20019;-77
2023/04/16 10:09:48;;;;;;;1999.90;999.90;;;;;;;11.59;87.21;97715.84;5136674;27;20047;-75
2023/04/16 10:12:14;;;;;;;1999.90;999.90;;;;;;;11.86;88.08;97698.56;5138185;27;20087;-76
2023/04/16 10:14:41;;;;;;;1999.90;999.90;;;;;;;12.04;85.82;97710.47;5138355;27;20496;-77
2023/04/16 10:17:07;;;;;;;1999.90;999.90;;;;;;;12.20;86.31;97701.56;5134424;27;20019;-75
2023/04/16 10:19:34;;;;;;;1999.90;999.90;;;;;;;12.31;83.44;97697.44;5134748;27;20019;-76
2023/04/16 10:22:00;;;;;;;1999.90;999.90;;;;;;;12.23;85.50;97705.63;5133987;27;20079;-74
2023/04/16 10:24:27;;;;;;;1999.90;999.90;;;;;;;12.28;83.17;97703.56;5134407;27;20083;-75
2023/04/16 10:26:53;;;;;;;1999.90;999.90;;;;;;;12.45;83.17;97702.88;5134028;27;20118;-76
2023/04/16 10:29:20;;;;;;;1999.90;999.90;;;;;;;12.09;84.91;97688.44;5130990;27;20022;-78
2023/04/16 10:31:46;;;;;;;1999.90;999.90;;;;;;;12.24;80.11;97688.88;5134004;27;20467;-75
2023/04/16 10:34:13;;;;;;;1999.90;999.90;;;;;;;12.60;80.20;97699.72;5133918;27;20368;-77
2023/04/16 10:36:39;;;;;;;1999.90;999.90;;;;;;;12.94;77.60;97693.56;5133729;27;20028;-74
2023/04/16 10:39:10;;;;;;;1999.90;999.90;;;;;;;12.93;77.85;97685.69;5133614;27;20027;-75
2023/04/16 10:41:36;;;;;;;1999.90;999.90;;;;;;;13.15;76.03;97691.13;5133940;27;20015;-74
2023/04/16 10:44:08;;;;;;;1999.90;999.90;;;;;;;13.02;76.61;97686.50;5133526;27;20072;-75
2023/04/16 10:46:40;;;;;;;1999.90;999.90;;;;;;;13.48;74.44;97692.31;5120118;27;20621;-76